Time;durP1;ratioP1;P1;durP2;ratioP2;P2;SDS_P1;SDS_P2;PMS_P1;PMS_P2;Temp;Humidity;BMP_temperature;BMP_pressure;BME280_temperature;BME280_humidity;BME280_pressure;Samples;Min_cycle;Max_cycle;Signal;HPM_P1;HPM_P2
2021/12/23 00:02:24;;;;;;;2.95;2.65;;;21.40;39.70;;;;;;5054932;28;20028;-59
2021/12/23 00:04:50;;;;;;;3.67;2.65;;;21.30;39.60;;;;;;5054919;28;20025;-60
2021/12/23 00:07:16;;;;;;;3.65;2.88;;;21.30;39.60;;;;;;5054825;28;20048;-60
2021/12/23 00:12:15;;;;;;;3.47;2.67;;;21.30;39.60;;;;;;5057100;28;20025;-62
2021/12/23 00:14:41;;;;;;;4.20;2.83;;;21.30;39.60;;;;;;5056273;28;20009;-61
2021/12/23 00:18:28;;;;;;;3.90;2.90;;;21.30;39.60;;;;;;5055267;28;20017;-62
2021/12/23 00:25:16;;;;;;;3.17;2.80;;;21.30;39.60;;;;;;5040041;28;20036;-60
2021/12/23 00:27:41;;;;;;;3.92;2.90;;;21.30;39.60;;;;;;5054353;28;20036;-60
2021/12/23 00:30:08;;;;;;;3.97;2.83;;;21.30;39.60;;;;;;5054469;28;20025;-60
2021/12/23 00:32:34;;;;;;;3.17;2.50;;;21.30;39.60;;;;;;5054495;28;20029;-60
2021/12/23 00:35:00;;;;;;;4.07;2.60;;;21.30;39.60;;;;;;5054428;28;20092;-60
2021/12/23 00:37:29;;;;;;;3.97;2.92;;;21.30;39.60;;;;;;5053903;28;20466;-61
2021/12/23 00:39:54;;;;;;;3.45;2.78;;;21.40;39.70;;;;;;5053897;28;20524;-60
2021/12/23 00:42:20;;;;;;;3.35;2.83;;;21.40;39.60;;;;;;5053933;28;20017;-60
2021/12/23 00:44:47;;;;;;;3.72;3.00;;;21.40;39.60;;;;;;5036305;28;20368;-61
2021/12/23 00:47:14;;;;;;;5.05;3.05;;;21.40;39.60;;;;;;5054137;28;20025;-60
2021/12/23 00:49:40;;;;;;;3.58;2.80;;;21.30;39.50;;;;;;5054286;28;20092;-61
2021/12/23 00:52:08;;;;;;;3.38;2.85;;;21.40;39.50;;;;;;5054156;28;20049;-60
2021/12/23 00:54:34;;;;;;;4.05;2.75;;;21.40;39.60;;;;;;5054046;28;20067;-62
2021/12/23 00:57:00;;;;;;;4.28;2.88;;;21.40;39.50;;;;;;5053930;28;20020;-60
2021/12/23 00:59:26;;;;;;;3.00;2.60;;;21.40;39.50;;;;;;5054047;28;20435;-62
2021/12/23 01:01:52;;;;;;;3.65;2.80;;;21.40;39.60;;;;;;5036305;28;20028;-61
2021/12/23 01:04:18;;;;;;;4.82;2.83;;;21.40;39.50;;;;;;5054095;28;20025;-61
2021/12/23 01:06:45;;;;;;;3.20;2.78;;;21.40;39.60;;;;;;5053595;28;20025;-61
2021/12/23 01:09:10;;;;;;;3.35;2.83;;;21.40;39.50;;;;;;5053762;28;20019;-62
2021/12/23 01:11:36;;;;;;;2.92;2.63;;;21.40;39.50;;;;;;5036524;28;20437;-63
2021/12/23 01:19:24;;;;;;;3.25;2.90;;;21.40;39.60;;;;;;5053486;28;20049;-62
2021/12/23 01:21:51;;;;;;;3.33;2.70;;;21.40;39.50;;;;;;5053177;28;20506;-62
2021/12/23 01:24:17;;;;;;;3.67;3.05;;;21.40;39.50;;;;;;5053122;28;20021;-60
2021/12/23 01:26:43;;;;;;;3.25;2.90;;;21.40;39.60;;;;;;5053365;28;20040;-60
2021/12/23 01:29:08;;;;;;;3.45;3.05;;;21.40;39.50;;;;;;5053250;28;20475;-62
2021/12/23 01:31:35;;;;;;;3.30;3.00;;;21.40;39.50;;;;;;5053249;28;20399;-63
2021/12/23 01:34:01;;;;;;;3.13;2.80;;;21.40;39.50;;;;;;5053344;28;20092;-62
2021/12/23 01:36:27;;;;;;;3.10;2.80;;;21.40;39.50;;;;;;5053214;28;20559;-62
2021/12/23 01:38:53;;;;;;;2.88;2.58;;;21.40;39.50;;;;;;5053284;28;20017;-63
2021/12/23 01:41:21;;;;;;;3.55;2.63;;;21.40;39.50;;;;;;5053393;28;20021;-62
2021/12/23 01:43:47;;;;;;;2.97;2.50;;;21.40;39.50;;;;;;5052995;28;20487;-61
2021/12/23 01:46:16;;;;;;;3.35;3.03;;;21.40;39.40;;;;;;5053363;28;20017;-61
2021/12/23 01:48:42;;;;;;;3.55;2.80;;;21.40;39.40;;;;;;5053266;28;20017;-62
2021/12/23 01:51:09;;;;;;;3.72;2.60;;;21.40;39.50;;;;;;5053143;28;20017;-61
2021/12/23 01:53:36;;;;;;;3.20;2.42;;;21.40;39.50;;;;;;5053243;28;20025;-61
2021/12/23 01:56:02;;;;;;;2.95;2.42;;;21.40;39.50;;;;;;5053533;28;20009;-61
2021/12/23 01:58:28;;;;;;;3.08;2.70;;;21.50;39.50;;;;;;5053608;28;20391;-61
2021/12/23 02:00:54;;;;;;;2.97;2.50;;;21.40;39.40;;;;;;5053128;28;20012;-61
2021/12/23 02:03:21;;;;;;;2.85;2.60;;;21.40;39.40;;;;;;5053465;28;20021;-62
2021/12/23 02:05:47;;;;;;;3.35;2.58;;;21.40;39.40;;;;;;5053323;28;20017;-61
2021/12/23 02:08:13;;;;;;;3.15;2.50;;;21.40;39.40;;;;;;5053604;28;20105;-60
2021/12/23 02:10:40;;;;;;;3.67;2.72;;;21.40;39.40;;;;;;5053349;28;20048;-61
2021/12/23 02:13:05;;;;;;;3.90;2.67;;;21.40;39.40;;;;;;5053193;28;20107;-62
2021/12/23 02:15:32;;;;;;;4.25;2.83;;;21.40;39.40;;;;;;5035277;28;20097;-62
2021/12/23 02:17:57;;;;;;;3.95;2.72;;;21.40;39.40;;;;;;5054331;28;20109;-61
2021/12/23 02:20:25;;;;;;;2.45;2.22;;;21.40;39.40;;;;;;5039517;28;20451;-60
2021/12/23 02:22:50;;;;;;;4.72;2.80;;;21.50;39.40;;;;;;5057406;28;20028;-61
2021/12/23 02:25:17;;;;;;;2.85;2.50;;;21.40;39.40;;;;;;5057171;28;20040;-61
2021/12/23 02:27:43;;;;;;;2.60;2.40;;;21.50;39.40;;;;;;5057123;28;20028;-61
2021/12/23 02:30:15;;;;;;;2.80;2.42;;;21.50;39.40;;;;;;5057005;28;20387;-61
2021/12/23 02:32:41;;;;;;;3.00;2.70;;;21.50;39.40;;;;;;5057313;28;20016;-60
2021/12/23 02:35:10;;;;;;;2.53;2.33;;;21.50;39.40;;;;;;5039360;28;20013;-61
2021/12/23 02:37:37;;;;;;;3.30;2.78;;;21.50;39.50;;;;;;5057215;28;20484;-61
2021/12/23 02:40:05;;;;;;;3.75;2.90;;;21.50;39.40;;;;;;5056859;28;20472;-60
2021/12/23 02:42:31;;;;;;;3.67;2.90;;;21.50;39.40;;;;;;5056807;28;20025;-61
2021/12/23 02:44:58;;;;;;;2.80;2.60;;;21.50;39.40;;;;;;5039106;28;20105;-61
2021/12/23 02:47:24;;;;;;;2.78;2.50;;;21.50;39.40;;;;;;5057216;28;20033;-61
2021/12/23 02:49:50;;;;;;;2.72;2.40;;;21.50;39.40;;;;;;5056958;28;20044;-60
2021/12/23 02:52:16;;;;;;;2.65;2.42;;;21.50;39.40;;;;;;5056601;28;20472;-61
2021/12/23 02:54:42;;;;;;;3.47;2.70;;;21.50;39.30;;;;;;5039106;28;20024;-61
2021/12/23 02:57:08;;;;;;;3.67;2.40;;;21.50;39.40;;;;;;5056972;28;20016;-62
2021/12/23 02:59:34;;;;;;;3.20;2.58;;;21.50;39.50;;;;;;5057007;28;20028;-60
2021/12/23 03:02:01;;;;;;;3.22;2.63;;;21.50;39.40;;;;;;5056811;28;20025;-61
2021/12/23 03:04:26;;;;;;;3.00;2.70;;;21.40;39.40;;;;;;5056200;28;20485;-61
2021/12/23 03:06:56;;;;;;;3.38;2.63;;;21.50;39.50;;;;;;5038092;28;20116;-61
2021/12/23 03:09:21;;;;;;;3.67;2.55;;;21.50;39.50;;;;;;5056326;28;20100;-61
2021/12/23 03:11:47;;;;;;;3.83;2.63;;;21.50;39.40;;;;;;5038419;28;20463;-61
2021/12/23 03:14:15;;;;;;;3.25;2.70;;;21.50;39.40;;;;;;5055867;28;20088;-61
2021/12/23 03:16:40;;;;;;;2.90;2.60;;;21.50;39.40;;;;;;5055534;28;20028;-61
2021/12/23 03:19:06;;;;;;;2.65;2.42;;;21.50;39.90;;;;;;5055859;28;20100;-61
2021/12/23 03:21:33;;;;;;;3.15;2.60;;;21.50;39.30;;;;;;5055718;28;20067;-61
2021/12/23 03:23:59;;;;;;;2.85;2.47;;;21.50;39.40;;;;;;5055379;28;20024;-61
2021/12/23 03:26:25;;;;;;;3.22;2.42;;;21.50;39.50;;;;;;5037618;28;20104;-61
2021/12/23 03:28:50;;;;;;;3.30;2.95;;;21.50;39.40;;;;;;5037063;28;20033;-61
2021/12/23 03:31:16;;;;;;;6.25;2.60;;;21.50;39.40;;;;;;5055566;28;20075;-61
2021/12/23 03:33:43;;;;;;;2.90;2.60;;;21.50;39.40;;;;;;5055267;28;20041;-61
2021/12/23 03:36:09;;;;;;;3.40;2.63;;;21.50;39.40;;;;;;5055333;28;20116;-61
2021/12/23 03:38:35;;;;;;;4.30;2.80;;;21.50;39.50;;;;;;5055504;28;20016;-61
2021/12/23 03:41:02;;;;;;;2.65;2.15;;;21.40;39.40;;;;;;5055626;28;20025;-61
2021/12/23 03:43:28;;;;;;;2.40;2.20;;;21.50;39.50;;;;;;5055384;28;20021;-62
2021/12/23 03:45:54;;;;;;;4.45;2.40;;;21.50;39.50;;;;;;5055301;28;20021;-61
2021/12/23 03:48:20;;;;;;;2.58;2.22;;;21.50;39.50;;;;;;5055073;28;20074;-61
2021/12/23 03:50:46;;;;;;;2.45;2.25;;;21.50;39.50;;;;;;5054930;28;20104;-61
2021/12/23 03:53:12;;;;;;;2.88;2.58;;;21.50;39.40;;;;;;5055122;28;20013;-61
2021/12/23 03:55:38;;;;;;;2.65;2.45;;;21.50;39.40;;;;;;5055479;28;20499;-60
2021/12/23 03:58:04;;;;;;;3.17;2.60;;;21.50;39.40;;;;;;5055240;28;20013;-60
2021/12/23 04:00:30;;;;;;;3.53;2.63;;;21.50;39.50;;;;;;5055590;28;20076;-60
2021/12/23 04:02:55;;;;;;;3.53;2.70;;;21.50;39.40;;;;;;5055930;28;20021;-61
2021/12/23 04:05:21;;;;;;;2.63;2.42;;;21.50;39.40;;;;;;5055192;28;20025;-60
2021/12/23 04:07:48;;;;;;;2.45;2.17;;;21.50;39.40;;;;;;5055277;28;20534;-62
2021/12/23 04:10:16;;;;;;;2.55;2.35;;;21.50;39.40;;;;;;5055378;28;20008;-61
2021/12/23 04:12:42;;;;;;;3.55;2.55;;;21.60;39.40;;;;;;5054807;28;20017;-62
2021/12/23 04:15:08;;;;;;;3.00;2.50;;;21.60;39.40;;;;;;5054933;28;20012;-60
2021/12/23 04:17:34;;;;;;;3.45;2.58;;;21.60;39.30;;;;;;5037297;28;20017;-61
2021/12/23 04:20:13;;;;;;;3.28;2.70;;;21.70;39.20;;;;;;5037099;28;20503;-60
2021/12/23 04:22:39;;;;;;;3.50;2.85;;;21.70;39.10;;;;;;5054563;28;20025;-64
2021/12/23 04:25:05;;;;;;;2.50;2.30;;;21.80;39.00;;;;;;5054861;28;20029;-62
2021/12/23 04:27:31;;;;;;;3.38;2.80;;;21.80;38.90;;;;;;5054211;28;20052;-61
2021/12/23 04:29:58;;;;;;;3.38;2.50;;;21.80;38.90;;;;;;5054482;28;20494;-61
2021/12/23 04:32:24;;;;;;;3.58;2.60;;;21.90;38.80;;;;;;5054126;28;20020;-61
2021/12/23 04:34:50;;;;;;;2.47;2.25;;;22.00;38.70;;;;;;5054171;28;20020;-61
2021/12/23 04:37:16;;;;;;;2.60;2.30;;;22.00;38.60;;;;;;5036390;28;20056;-60
2021/12/23 04:39:41;;;;;;;2.92;2.60;;;22.10;38.60;;;;;;5036617;28;20014;-61
2021/12/23 04:42:07;;;;;;;4.50;2.60;;;22.10;38.50;;;;;;5053486;28;20083;-61
2021/12/23 04:44:33;;;;;;;2.60;2.30;;;22.20;38.40;;;;;;5053943;28;20423;-61
2021/12/23 04:46:59;;;;;;;2.50;2.30;;;22.20;38.30;;;;;;5053941;28;20033;-61
2021/12/23 04:49:25;;;;;;;2.60;2.40;;;22.20;38.40;;;;;;5036549;28;20021;-61
2021/12/23 04:51:51;;;;;;;3.40;2.72;;;22.20;38.50;;;;;;5036066;28;20372;-61
2021/12/23 04:54:16;;;;;;;3.28;2.50;;;22.20;38.40;;;;;;5053867;28;20041;-61
2021/12/23 04:56:43;;;;;;;2.58;2.35;;;22.20;38.40;;;;;;5054470;28;20047;-61
2021/12/23 04:59:10;;;;;;;3.03;2.35;;;22.20;38.40;;;;;;5053928;28;20082;-60
2021/12/23 05:01:36;;;;;;;2.70;2.40;;;22.20;38.30;;;;;;5054165;28;20013;-63
2021/12/23 05:04:02;;;;;;;2.72;2.42;;;22.30;38.30;;;;;;5053504;28;20066;-62
2021/12/23 05:06:29;;;;;;;2.58;2.38;;;22.30;38.20;;;;;;5053679;28;20013;-61
2021/12/23 05:08:55;;;;;;;2.40;2.17;;;22.40;38.10;;;;;;5053650;28;20206;-60
2021/12/23 05:11:21;;;;;;;2.58;2.35;;;22.50;38.10;;;;;;5053415;28;20518;-61
2021/12/23 05:13:47;;;;;;;2.70;2.25;;;22.50;38.00;;;;;;5053668;28;20028;-61
2021/12/23 05:16:14;;;;;;;4.45;2.60;;;22.60;37.90;;;;;;5053218;28;20013;-61
2021/12/23 05:18:40;;;;;;;2.90;2.60;;;22.60;37.80;;;;;;5053356;28;20096;-62
2021/12/23 05:21:06;;;;;;;3.75;2.55;;;22.70;37.80;;;;;;5053297;28;20143;-61
2021/12/23 05:23:32;;;;;;;2.38;2.17;;;22.70;37.60;;;;;;5035446;28;20387;-61
2021/12/23 05:25:58;;;;;;;3.30;2.78;;;22.80;37.70;;;;;;5053121;28;20391;-60
2021/12/23 05:28:24;;;;;;;2.92;2.60;;;22.80;37.60;;;;;;5035630;28;20037;-61
2021/12/23 05:30:50;;;;;;;2.58;2.38;;;22.80;37.50;;;;;;5053097;28;20017;-61
2021/12/23 05:33:17;;;;;;;2.78;2.30;;;22.80;37.60;;;;;;5035433;28;20032;-61
2021/12/23 05:35:43;;;;;;;3.33;2.60;;;22.80;38.20;;;;;;5035454;28;20049;-61
2021/12/23 05:38:09;;;;;;;3.58;2.50;;;22.80;37.50;;;;;;5035577;28;20025;-61
2021/12/23 05:40:35;;;;;;;3.20;2.35;;;22.80;37.50;;;;;;5053229;28;20017;-61
2021/12/23 05:43:02;;;;;;;3.95;2.70;;;22.90;37.50;;;;;;5035543;28;20025;-61
2021/12/23 05:45:29;;;;;;;3.28;2.58;;;22.90;37.40;;;;;;5053162;28;20116;-61
2021/12/23 05:47:55;;;;;;;2.20;2.00;;;23.00;37.40;;;;;;5052735;28;20057;-61
2021/12/23 05:50:21;;;;;;;3.40;2.30;;;23.00;37.30;;;;;;5053026;28;20047;-61
2021/12/23 05:52:47;;;;;;;2.63;2.42;;;23.00;37.20;;;;;;5052619;28;20447;-61
2021/12/23 05:55:13;;;;;;;3.22;2.30;;;23.10;37.20;;;;;;5052857;28;20021;-60
2021/12/23 05:57:40;;;;;;;2.95;2.65;;;23.10;37.30;;;;;;5052743;28;20024;-61
2021/12/23 06:00:10;;;;;;;3.33;2.65;;;23.10;37.30;;;;;;5053564;28;20163;-61
2021/12/23 06:02:37;;;;;;;3.00;2.70;;;23.10;37.30;;;;;;5053680;28;20014;-61
2021/12/23 06:05:04;;;;;;;4.03;2.38;;;23.10;37.30;;;;;;5035721;28;20023;-60
2021/12/23 06:07:30;;;;;;;3.33;2.63;;;23.10;37.30;;;;;;5053411;28;20029;-61
2021/12/23 06:09:56;;;;;;;3.67;2.70;;;23.10;37.20;;;;;;5035532;28;20472;-61
2021/12/23 06:12:22;;;;;;;2.85;2.60;;;23.20;37.30;;;;;;5052886;28;20021;-61
2021/12/23 06:14:48;;;;;;;2.88;2.58;;;23.20;37.30;;;;;;5052598;28;20415;-61
2021/12/23 06:17:14;;;;;;;2.58;2.38;;;23.20;37.20;;;;;;5052614;28;20060;-62
2021/12/23 06:19:40;;;;;;;2.72;2.53;;;23.20;37.10;;;;;;5052790;28;20021;-61
2021/12/23 06:22:07;;;;;;;3.00;2.40;;;23.20;37.10;;;;;;5052525;28;20040;-61
2021/12/23 06:24:33;;;;;;;3.22;2.35;;;23.30;37.10;;;;;;5052721;28;20029;-62
2021/12/23 06:26:59;;;;;;;2.92;2.42;;;23.30;37.10;;;;;;5052354;28;20017;-61
2021/12/23 06:29:24;;;;;;;3.10;2.30;;;23.20;37.10;;;;;;5034499;28;20013;-60
2021/12/23 06:31:50;;;;;;;3.03;2.28;;;23.20;37.10;;;;;;5034471;28;20078;-60
2021/12/23 06:34:16;;;;;;;2.55;2.35;;;23.30;37.10;;;;;;5034830;28;20490;-60
2021/12/23 06:36:43;;;;;;;3.40;2.72;;;23.30;37.10;;;;;;5034816;28;20411;-61
2021/12/23 06:39:08;;;;;;;3.20;2.58;;;23.30;37.10;;;;;;5035032;28;20021;-60
2021/12/23 06:41:34;;;;;;;2.47;2.28;;;23.40;37.10;;;;;;5052526;28;20028;-61
2021/12/23 06:44:00;;;;;;;3.15;2.83;;;23.40;37.10;;;;;;5052653;28;20392;-60
2021/12/23 06:46:26;;;;;;;2.67;2.47;;;23.40;37.00;;;;;;5052612;28;20088;-61
2021/12/23 06:48:54;;;;;;;2.65;2.30;;;23.40;37.00;;;;;;5034609;28;20396;-61
2021/12/23 06:51:20;;;;;;;3.10;2.50;;;23.40;36.90;;;;;;5052391;28;20472;-60
2021/12/23 06:53:46;;;;;;;3.58;2.45;;;23.50;36.90;;;;;;5052193;28;20006;-60
2021/12/23 06:56:13;;;;;;;2.50;2.30;;;23.50;36.90;;;;;;5052676;28;20020;-60
2021/12/23 06:58:39;;;;;;;3.28;2.47;;;23.50;37.00;;;;;;5052236;28;20460;-60
2021/12/23 07:01:05;;;;;;;4.85;2.40;;;23.40;37.00;;;;;;5052501;28;20022;-60
2021/12/23 07:06:20;;;;;;;2.60;2.40;;;23.50;37.10;;;;;;5056105;28;20083;-60
2021/12/23 07:08:46;;;;;;;3.10;2.70;;;23.50;37.00;;;;;;5038629;28;20033;-60
2021/12/23 07:11:12;;;;;;;2.47;2.28;;;23.50;37.00;;;;;;5056409;28;20088;-60
2021/12/23 07:13:38;;;;;;;2.72;2.22;;;23.50;36.90;;;;;;5038439;28;20013;-61
2021/12/23 07:16:04;;;;;;;3.22;2.45;;;23.60;37.00;;;;;;5038172;28;20443;-60
2021/12/23 07:18:30;;;;;;;2.70;2.50;;;23.60;36.90;;;;;;5056105;28;20025;-60
2021/12/23 07:20:56;;;;;;;4.88;2.50;;;23.60;36.90;;;;;;5055908;28;20028;-61
2021/12/23 07:23:23;;;;;;;4.55;2.85;;;23.60;36.90;;;;;;5055582;28;20513;-61
2021/12/23 07:25:49;;;;;;;3.38;2.53;;;23.60;37.00;;;;;;5055568;28;20021;-61
2021/12/23 07:28:15;;;;;;;4.60;2.42;;;23.60;37.00;;;;;;5038012;28;20036;-61
2021/12/23 07:30:41;;;;;;;2.42;2.22;;;23.60;37.10;;;;;;5037960;28;20021;-60
2021/12/23 07:33:07;;;;;;;2.78;2.47;;;23.60;37.10;;;;;;5055841;28;20115;-61
2021/12/23 07:35:33;;;;;;;2.50;2.30;;;23.60;37.00;;;;;;5056161;28;20024;-61
2021/12/23 07:38:01;;;;;;;3.28;2.58;;;23.60;37.00;;;;;;5056406;28;20035;-61
2021/12/23 07:40:28;;;;;;;4.03;2.67;;;23.60;36.90;;;;;;5038484;28;20021;-58
2021/12/23 07:42:56;;;;;;;2.67;2.47;;;23.70;37.00;;;;;;5037952;28;20021;-60
2021/12/23 07:45:24;;;;;;;2.40;2.20;;;23.70;36.90;;;;;;5055796;28;20021;-60
2021/12/23 07:47:50;;;;;;;3.28;2.67;;;23.70;36.80;;;;;;5055604;28;20029;-61
2021/12/23 07:50:16;;;;;;;2.92;2.22;;;23.70;36.90;;;;;;5055990;28;20071;-61
2021/12/23 07:52:41;;;;;;;2.80;2.40;;;23.70;36.90;;;;;;5038141;28;20404;-62
2021/12/23 07:55:07;;;;;;;2.80;2.30;;;23.70;37.00;;;;;;5055744;28;20024;-61
2021/12/23 07:57:33;;;;;;;4.03;2.17;;;23.60;37.00;;;;;;5056009;28;20162;-61
2021/12/23 08:00:00;;;;;;;3.00;2.60;;;23.70;37.00;;;;;;5021374;28;20507;-62
2021/12/23 08:02:26;;;;;;;3.30;2.63;;;23.70;37.00;;;;;;5038871;28;20025;-62
2021/12/23 08:04:52;;;;;;;2.75;2.38;;;23.70;37.00;;;;;;5038074;28;20376;-61
2021/12/23 08:07:18;;;;;;;2.95;2.38;;;23.70;36.90;;;;;;5038001;28;20488;-62
2021/12/23 08:09:44;;;;;;;3.80;2.53;;;23.80;36.90;;;;;;5038029;28;20009;-62
2021/12/23 08:12:10;;;;;;;3.08;2.60;;;23.80;36.90;;;;;;5055638;28;20495;-62
2021/12/23 08:14:36;;;;;;;2.42;2.22;;;23.80;36.90;;;;;;5054871;28;20017;-61
2021/12/23 08:17:02;;;;;;;2.33;2.13;;;23.80;36.90;;;;;;5036467;28;20021;-62
2021/12/23 08:19:29;;;;;;;2.53;2.33;;;23.80;36.90;;;;;;5037482;28;20017;-61
2021/12/23 08:21:54;;;;;;;2.95;2.50;;;23.80;36.90;;;;;;5055156;28;20013;-61
2021/12/23 08:24:23;;;;;;;3.05;2.70;;;23.80;36.90;;;;;;5054893;28;20075;-61
2021/12/23 08:26:53;;;;;;;2.60;2.35;;;23.80;37.00;;;;;;5020740;28;20079;-61
2021/12/23 08:29:20;;;;;;;4.40;2.50;;;23.80;37.00;;;;;;5054295;28;20029;-61
2021/12/23 08:31:53;;;;;;;2.55;2.33;;;23.90;37.50;;;;;;5054145;28;20456;-61
2021/12/23 08:34:24;;;;;;;3.42;2.58;;;23.90;36.90;;;;;;5054662;28;20013;-61
2021/12/23 08:36:51;;;;;;;2.83;2.03;;;23.90;36.90;;;;;;5053904;28;20044;-61
2021/12/23 08:39:17;;;;;;;2.40;2.20;;;23.90;36.90;;;;;;5053952;28;20048;-61
2021/12/23 08:41:43;;;;;;;3.30;2.60;;;23.90;36.80;;;;;;5054296;28;20043;-61
2021/12/23 08:44:09;;;;;;;2.95;2.60;;;23.90;36.90;;;;;;5053946;28;20420;-61
2021/12/23 08:46:35;;;;;;;3.38;2.45;;;23.90;36.80;;;;;;5053891;28;20116;-60
2021/12/23 08:49:02;;;;;;;2.80;2.40;;;23.90;36.90;;;;;;5053713;28;20104;-61
2021/12/23 08:51:28;;;;;;;3.35;2.60;;;23.90;36.90;;;;;;5054253;28;20043;-61
2021/12/23 08:53:54;;;;;;;3.80;2.55;;;23.90;36.90;;;;;;5053968;28;20100;-61
2021/12/23 08:56:20;;;;;;;3.22;2.45;;;23.90;36.90;;;;;;5053888;28;20108;-61
2021/12/23 08:58:46;;;;;;;3.30;2.50;;;24.00;36.90;;;;;;5036149;28;20024;-61
2021/12/23 09:01:12;;;;;;;3.10;2.35;;;24.00;36.80;;;;;;5035844;28;20021;-60
2021/12/23 09:03:38;;;;;;;2.30;2.08;;;24.00;36.80;;;;;;5053570;28;20140;-61
2021/12/23 09:06:04;;;;;;;2.65;2.20;;;24.00;36.80;;;;;;5053699;28;20100;-61
2021/12/23 09:08:33;;;;;;;2.50;2.30;;;24.00;36.80;;;;;;5035781;28;20368;-61
2021/12/23 09:11:00;;;;;;;2.33;2.13;;;24.00;36.70;;;;;;5053476;28;20136;-61
2021/12/23 09:13:26;;;;;;;2.72;2.50;;;24.00;36.70;;;;;;5036265;28;20458;-62
2021/12/23 09:15:52;;;;;;;2.75;2.50;;;24.00;36.70;;;;;;5035703;28;20041;-61
2021/12/23 09:18:19;;;;;;;4.35;2.67;;;24.00;36.80;;;;;;5035685;28;20025;-61
2021/12/23 09:20:46;;;;;;;3.83;2.70;;;24.00;36.80;;;;;;5053342;28;20009;-61
2021/12/23 09:23:11;;;;;;;2.67;2.40;;;24.00;36.80;;;;;;5053398;28;20106;-61
2021/12/23 09:25:38;;;;;;;3.35;2.58;;;24.10;36.80;;;;;;5053476;28;20094;-61
2021/12/23 09:33:37;;;;;;;3.92;2.53;;;24.10;36.80;;;;;;5053567;28;20067;-61
2021/12/23 09:36:03;;;;;;;3.17;2.28;;;24.10;36.80;;;;;;5035216;28;20495;-61
2021/12/23 09:38:29;;;;;;;3.08;2.67;;;24.20;36.80;;;;;;5035737;28;20021;-62
2021/12/23 09:41:00;;;;;;;2.50;2.30;;;24.10;36.80;;;;;;5053035;28;20069;-62
2021/12/23 09:43:26;;;;;;;2.90;2.60;;;24.10;36.80;;;;;;5053805;28;20096;-62
2021/12/23 09:45:52;;;;;;;2.80;2.35;;;24.10;36.80;;;;;;5053615;28;20018;-62
2021/12/23 09:48:21;;;;;;;2.60;2.38;;;24.10;36.90;;;;;;5035897;28;20032;-62
2021/12/23 09:50:47;;;;;;;2.50;2.20;;;24.10;37.40;;;;;;5053302;28;20013;-61
2021/12/23 09:53:18;;;;;;;3.72;2.88;;;24.20;36.90;;;;;;5035560;28;20387;-62
2021/12/23 09:55:43;;;;;;;3.20;2.25;;;24.20;36.80;;;;;;5053498;28;20075;-62
2021/12/23 09:58:10;;;;;;;2.35;2.15;;;24.20;36.80;;;;;;5035523;28;20021;-60
2021/12/23 10:00:37;;;;;;;2.78;2.33;;;24.20;36.70;;;;;;5053155;28;20379;-59
2021/12/23 10:03:03;;;;;;;2.45;2.25;;;24.30;36.80;;;;;;5053354;28;20020;-61
2021/12/23 10:05:30;;;;;;;4.30;2.35;;;24.20;36.70;;;;;;5053435;28;20021;-60
2021/12/23 10:07:56;;;;;;;4.07;2.30;;;24.20;36.70;;;;;;5052977;28;20017;-60
2021/12/23 10:10:37;;;;;;;2.50;2.30;;;24.30;36.80;;;;;;5053273;28;20163;-60
2021/12/23 10:33:17;;;;;;;2.83;2.50;;;24.30;36.70;;;;;;5053421;28;20024;-62
2021/12/23 10:38:04;;;;;;;2.55;2.30;;;24.30;36.70;;;;;;5053169;28;20106;-62
2021/12/23 10:40:39;;;;;;;3.17;2.47;;;24.30;36.70;;;;;;5056469;28;20016;-62
2021/12/23 10:43:06;;;;;;;2.60;2.40;;;24.30;36.70;;;;;;5056785;28;20016;-61
2021/12/23 10:45:41;;;;;;;2.72;2.40;;;24.30;36.70;;;;;;5039176;28;20025;-59
2021/12/23 10:48:10;;;;;;;2.97;2.33;;;24.40;36.70;;;;;;5056612;28;20017;-60
2021/12/23 10:50:47;;;;;;;2.85;2.50;;;24.40;36.70;;;;;;5056667;28;20013;-61
2021/12/23 10:59:15;;;;;;;2.70;2.50;;;24.40;36.60;;;;;;5056622;28;20110;-61
2021/12/23 11:02:03;;;;;;;2.95;2.35;;;24.40;36.60;;;;;;5056422;28;20028;-61
2021/12/23 11:04:34;;;;;;;3.15;2.70;;;24.40;36.70;;;;;;5038110;28;20066;-61
2021/12/23 11:07:20;;;;;;;3.05;2.40;;;24.40;36.70;;;;;;5055996;28;20013;-61
2021/12/23 11:10:08;;;;;;;3.40;2.45;;;24.40;36.60;;;;;;5056324;28;20017;-61
2021/12/23 11:37:43;;;;;;;2.95;2.40;;;24.60;36.70;;;;;;5034633;28;20052;-63
2021/12/23 11:40:24;;;;;;;2.25;2.05;;;24.60;36.60;;;;;;5035812;28;20464;-61
2021/12/23 11:45:31;;;;;;;2.80;2.47;;;24.60;36.50;;;;;;5035970;28;20542;-62
2021/12/23 11:47:57;;;;;;;2.95;2.63;;;24.60;36.40;;;;;;5035384;28;20026;-61
2021/12/23 11:50:31;;;;;;;3.20;2.60;;;24.60;36.40;;;;;;5035383;28;20740;-61
2021/12/23 11:52:57;;;;;;;2.40;2.20;;;24.60;36.40;;;;;;5035531;28;20024;-62
2021/12/23 11:55:22;;;;;;;2.80;2.30;;;24.60;36.40;;;;;;5034188;28;20464;-62
2021/12/23 11:57:53;;;;;;;3.75;2.30;;;24.60;36.50;;;;;;5035963;28;20018;-61
2021/12/23 12:00:32;;;;;;;2.58;2.22;;;24.60;36.50;;;;;;5036029;28;20017;-60
2021/12/23 12:03:03;;;;;;;4.72;2.70;;;24.70;36.50;;;;;;5034711;28;20022;-60
2021/12/23 12:05:33;;;;;;;2.43;2.23;;;24.60;36.50;;;;;;5034006;28;20025;-61
2021/12/23 12:08:17;;;;;;;2.42;2.05;;;24.70;36.50;;;;;;5035743;28;20284;-61
2021/12/23 12:10:46;;;;;;;2.40;2.20;;;24.70;36.40;;;;;;5035329;28;20013;-61
2021/12/23 12:13:14;;;;;;;2.70;2.30;;;24.70;36.40;;;;;;5035468;28;20020;-61
2021/12/23 12:15:39;;;;;;;3.25;2.38;;;24.70;36.40;;;;;;5035818;28;20049;-60
2021/12/23 12:18:09;;;;;;;3.63;2.47;;;24.70;36.40;;;;;;5035250;28;20057;-60
2021/12/23 12:20:42;;;;;;;2.78;2.22;;;24.70;36.50;;;;;;5035547;28;20014;-60
2021/12/23 12:23:14;;;;;;;2.30;2.10;;;24.70;36.50;;;;;;5034921;28;20014;-61
2021/12/23 12:25:47;;;;;;;3.05;2.63;;;24.70;36.50;;;;;;5035251;28;20014;-60
2021/12/23 12:28:34;;;;;;;2.67;2.40;;;24.80;36.50;;;;;;5035198;28;20029;-60
2021/12/23 12:31:14;;;;;;;2.50;2.30;;;24.80;36.50;;;;;;5035282;28;20013;-60
2021/12/23 12:33:42;;;;;;;3.13;2.60;;;24.80;36.40;;;;;;5035152;28;20014;-60
2021/12/23 12:36:15;;;;;;;2.35;2.13;;;24.80;36.40;;;;;;5041373;28;20040;-60
2021/12/23 12:38:41;;;;;;;2.80;2.60;;;24.80;36.40;;;;;;5054655;28;20017;-60
2021/12/23 12:41:17;;;;;;;2.83;2.55;;;24.80;36.40;;;;;;5054732;28;20478;-59
2021/12/23 12:43:52;;;;;;;3.08;2.47;;;24.80;36.50;;;;;;5055278;28;20017;-60
2021/12/23 12:46:42;;;;;;;2.80;2.60;;;24.80;36.50;;;;;;5055555;28;20021;-61
2021/12/23 12:49:13;;;;;;;2.60;2.40;;;24.80;36.50;;;;;;5056263;28;20100;-60
2021/12/23 12:51:40;;;;;;;2.53;2.33;;;24.80;36.50;;;;;;5057635;28;20015;-61
2021/12/23 12:54:16;;;;;;;2.83;2.60;;;24.90;36.50;;;;;;5038949;28;20009;-61
2021/12/23 12:56:50;;;;;;;2.50;2.20;;;24.90;36.50;;;;;;5055368;28;20009;-61
2021/12/23 12:59:20;;;;;;;2.75;2.30;;;24.90;36.40;;;;;;5055196;28;20088;-61
2021/12/23 13:01:48;;;;;;;2.30;2.10;;;24.90;36.40;;;;;;5054922;28;20069;-62
2021/12/23 13:04:41;;;;;;;3.17;2.38;;;24.90;36.50;;;;;;5055722;28;20009;-62
2021/12/23 13:07:25;;;;;;;2.75;2.55;;;24.90;36.50;;;;;;5055782;28;20348;-61
2021/12/23 13:10:00;;;;;;;2.65;2.40;;;24.90;36.50;;;;;;5055366;28;20028;-61
2021/12/23 13:12:34;;;;;;;2.50;2.30;;;24.90;36.50;;;;;;5055195;28;20096;-61
2021/12/23 13:15:33;;;;;;;2.53;2.30;;;24.90;36.50;;;;;;5037431;28;20028;-60
2021/12/23 13:18:10;;;;;;;2.22;1.90;;;24.90;36.50;;;;;;5039741;28;20706;-62
2021/12/23 13:20:47;;;;;;;3.00;2.20;;;25.00;36.50;;;;;;5054329;28;20021;-60
2021/12/23 13:23:32;;;;;;;2.50;2.30;;;25.00;36.50;;;;;;5054237;28;20104;-60
2021/12/23 13:26:03;;;;;;;2.55;2.35;;;25.00;36.50;;;;;;5054843;28;20029;-59
2021/12/23 13:28:43;;;;;;;3.53;2.60;;;24.90;36.40;;;;;;5055319;28;20071;-62
2021/12/23 13:31:13;;;;;;;2.95;2.65;;;24.90;36.50;;;;;;5055108;28;20013;-60
2021/12/23 13:33:59;;;;;;;3.38;2.63;;;24.90;36.50;;;;;;5055659;28;20016;-62
2021/12/23 13:36:30;;;;;;;2.60;2.35;;;24.90;36.50;;;;;;5055312;28;20120;-60
2021/12/23 13:39:01;;;;;;;3.60;2.58;;;24.90;36.60;;;;;;5055698;28;20021;-60
2021/12/23 13:41:32;;;;;;;3.22;2.80;;;24.90;36.50;;;;;;5055136;28;20025;-60
2021/12/23 13:44:26;;;;;;;2.55;2.30;;;24.90;36.50;;;;;;5055229;28;20029;-60
2021/12/23 13:47:15;;;;;;;3.45;2.55;;;25.00;36.50;;;;;;5055590;28;20020;-60
2021/12/23 13:49:50;;;;;;;2.83;2.50;;;25.00;36.50;;;;;;5057053;28;20013;-60
2021/12/23 13:52:25;;;;;;;2.67;2.47;;;25.00;36.50;;;;;;5057474;28;20091;-60
2021/12/23 13:55:08;;;;;;;2.65;2.45;;;25.00;36.50;;;;;;5055537;28;20070;-60
2021/12/23 13:57:36;;;;;;;4.38;2.65;;;25.00;36.50;;;;;;5054723;28;20036;-60
2021/12/23 14:00:16;;;;;;;2.53;2.33;;;25.00;36.50;;;;;;5054305;28;20013;-60
2021/12/23 14:02:42;;;;;;;3.00;2.70;;;25.00;36.50;;;;;;5038545;28;20027;-60
2021/12/23 14:05:09;;;;;;;3.05;2.70;;;25.00;36.50;;;;;;5053824;28;20092;-60
2021/12/23 14:07:37;;;;;;;2.83;2.35;;;25.00;36.50;;;;;;5054050;28;20029;-60
2021/12/23 14:10:10;;;;;;;2.55;2.35;;;25.00;36.50;;;;;;5053890;28;20009;-61
2021/12/23 14:12:51;;;;;;;3.03;2.70;;;25.00;36.50;;;;;;5056053;28;20017;-60